createdAt,value
2023-03-06T00:00:36.215Z,3.53
2023-03-06T00:03:06.695Z,4.27
2023-03-06T00:05:36.049Z,3.63
2023-03-06T00:08:04.812Z,3.80
2023-03-06T00:10:36.057Z,3.70
2023-03-06T00:13:08.313Z,3.80
2023-03-06T00:15:38.237Z,3.47
2023-03-06T00:18:09.364Z,3.10
2023-03-06T00:20:40.266Z,3.57
2023-03-06T00:23:08.930Z,3.97
2023-03-06T00:25:38.836Z,3.93
2023-03-06T00:28:08.792Z,2.93
2023-03-06T00:30:37.592Z,3.77
2023-03-06T00:33:08.067Z,4.03
2023-03-06T00:35:37.317Z,3.53
2023-03-06T00:38:07.658Z,3.30
2023-03-06T00:40:36.710Z,3.40
2023-03-06T00:43:05.910Z,3.90
2023-03-06T00:45:34.366Z,3.53
2023-03-06T00:48:03.178Z,3.23
2023-03-06T00:50:35.415Z,3.20
2023-03-06T00:53:04.194Z,3.50
2023-03-06T00:55:34.034Z,3.50
2023-03-06T00:58:02.298Z,3.77
2023-03-06T01:00:31.424Z,3.53
2023-03-06T01:02:59.814Z,3.80
2023-03-06T01:05:28.789Z,3.50
2023-03-06T01:07:59.945Z,3.87
2023-03-06T01:10:29.219Z,3.70
2023-03-06T01:12:58.556Z,3.97
2023-03-06T01:15:27.718Z,4.17
2023-03-06T01:17:56.200Z,4.40
2023-03-06T01:20:25.213Z,4.70
2023-03-06T01:22:54.687Z,4.17
2023-03-06T01:25:25.010Z,4.40
2023-03-06T01:27:54.330Z,4.83
2023-03-06T01:30:22.990Z,4.23
2023-03-06T01:32:51.918Z,4.20
2023-03-06T01:35:21.181Z,5.10
2023-03-06T01:37:50.042Z,5.27
2023-03-06T01:40:19.188Z,4.47
2023-03-06T01:42:52.246Z,4.90
2023-03-06T01:45:58.141Z,4.27
2023-03-06T01:48:26.844Z,4.70
2023-03-06T01:50:55.766Z,5.43
2023-03-06T01:53:24.221Z,5.00
2023-03-06T01:55:52.618Z,5.73
2023-03-06T01:58:24.313Z,5.00
2023-03-06T02:00:52.843Z,5.40
2023-03-06T02:03:25.826Z,5.80
2023-03-06T02:05:55.723Z,5.07
2023-03-06T02:08:26.837Z,4.80
2023-03-06T02:11:03.545Z,6.13
2023-03-06T02:13:34.069Z,5.67
2023-03-06T02:16:02.926Z,4.70
2023-03-06T02:18:37.316Z,5.10
2023-03-06T02:21:09.292Z,5.83
2023-03-06T02:23:48.996Z,5.90
2023-03-06T02:26:20.398Z,6.37
2023-03-06T02:28:49.770Z,6.20
2023-03-06T02:31:25.878Z,5.50
2023-03-06T02:34:09.639Z,5.70
2023-03-06T02:36:43.285Z,5.30
2023-03-06T02:39:13.708Z,4.47
2023-03-06T02:41:43.845Z,5.20
2023-03-06T02:44:12.575Z,5.83
2023-03-06T02:46:41.383Z,5.43
2023-03-06T02:49:09.735Z,5.47
2023-03-06T02:51:38.985Z,6.23
2023-03-06T02:54:08.058Z,6.07
2023-03-06T02:56:36.600Z,5.60
2023-03-06T02:59:06.827Z,5.30
2023-03-06T03:01:35.790Z,5.30
2023-03-06T03:04:09.278Z,5.53
2023-03-06T03:06:39.025Z,4.80
2023-03-06T03:09:08.368Z,4.80
2023-03-06T03:11:37.047Z,5.17
2023-03-06T03:14:06.997Z,5.07
2023-03-06T03:16:39.379Z,5.20
2023-03-06T03:19:08.618Z,5.07
2023-03-06T03:21:39.592Z,5.37
2023-03-06T03:24:11.165Z,4.10
2023-03-06T03:26:41.205Z,5.77
2023-03-06T03:29:16.209Z,4.50
2023-03-06T03:31:44.962Z,5.57
2023-03-06T03:34:13.514Z,4.83
2023-03-06T03:36:44.062Z,4.30
2023-03-06T03:39:17.666Z,5.00
2023-03-06T03:41:47.476Z,5.40
2023-03-06T03:44:19.737Z,5.77
2023-03-06T03:46:51.091Z,5.43
2023-03-06T03:49:25.805Z,5.27
2023-03-06T03:51:55.467Z,5.20
2023-03-06T03:54:26.927Z,5.67
2023-03-06T03:56:56.295Z,5.13
2023-03-06T03:59:30.897Z,5.17
2023-03-06T04:02:15.526Z,4.80
2023-03-06T04:04:53.168Z,4.87
2023-03-06T04:07:23.889Z,4.90
2023-03-06T04:09:56.673Z,5.30
2023-03-06T04:12:26.526Z,4.33
2023-03-06T04:14:56.521Z,4.40
2023-03-06T04:17:25.952Z,4.60
2023-03-06T04:19:56.359Z,4.90
2023-03-06T04:22:24.986Z,4.93
2023-03-06T04:24:55.028Z,5.10
2023-03-06T04:27:24.213Z,5.77
2023-03-06T04:29:56.502Z,4.83
2023-03-06T04:32:27.840Z,4.60
2023-03-06T04:34:56.711Z,4.40
2023-03-06T04:37:28.991Z,4.13
2023-03-06T04:39:59.664Z,5.03
2023-03-06T04:42:28.522Z,5.00
2023-03-06T04:44:57.528Z,4.70
2023-03-06T04:47:27.724Z,4.60
2023-03-06T04:49:56.642Z,5.20
2023-03-06T04:52:25.867Z,4.90
2023-03-06T04:54:54.495Z,4.30
2023-03-06T04:57:24.000Z,4.90
2023-03-06T04:59:54.400Z,5.10
2023-03-06T05:02:24.539Z,5.60
2023-03-06T05:04:56.225Z,5.60
2023-03-06T05:07:25.722Z,6.10
2023-03-06T05:09:55.104Z,5.40
2023-03-06T05:12:24.988Z,5.47
2023-03-06T05:14:53.522Z,5.90
2023-03-06T05:17:23.558Z,5.60
2023-03-06T05:19:57.825Z,6.57
2023-03-06T05:22:26.595Z,5.30
2023-03-06T05:24:55.938Z,5.30
2023-03-06T05:27:24.843Z,5.40
2023-03-06T05:29:53.369Z,6.07
2023-03-06T05:32:22.256Z,6.37
2023-03-06T05:34:51.400Z,6.20
2023-03-06T05:37:23.671Z,6.40
2023-03-06T05:39:53.705Z,5.30
2023-03-06T05:42:22.539Z,7.20
2023-03-06T05:44:51.852Z,6.50
2023-03-06T05:47:20.425Z,6.97
2023-03-06T05:49:51.053Z,7.20
2023-03-06T05:52:23.860Z,7.40
2023-03-06T05:54:53.812Z,7.00
2023-03-06T05:57:24.133Z,7.13
2023-03-06T05:59:53.110Z,7.00
2023-03-06T06:02:22.825Z,6.63
2023-03-06T06:04:51.387Z,7.90
2023-03-06T06:07:21.794Z,7.27
2023-03-06T06:09:54.106Z,7.13
2023-03-06T06:12:23.031Z,6.20
2023-03-06T06:14:53.282Z,7.80
2023-03-06T06:17:22.097Z,7.77
2023-03-06T06:19:50.585Z,7.63
2023-03-06T06:22:21.843Z,7.23
2023-03-06T06:24:51.188Z,7.17
2023-03-06T06:27:21.454Z,6.87
2023-03-06T06:29:53.024Z,7.20
2023-03-06T06:32:22.532Z,7.03
2023-03-06T06:34:51.959Z,7.30
2023-03-06T06:37:21.653Z,7.50
2023-03-06T06:39:51.536Z,7.07
2023-03-06T06:42:31.560Z,7.03
2023-03-06T06:45:03.249Z,6.90
2023-03-06T06:47:33.318Z,6.63
2023-03-06T06:50:02.120Z,6.87
2023-03-06T06:52:32.886Z,6.57
2023-03-06T06:55:01.552Z,7.30
2023-03-06T06:57:31.260Z,7.83
2023-03-06T06:59:59.671Z,6.80
2023-03-06T07:02:28.655Z,6.27
2023-03-06T07:05:04.220Z,7.00
2023-03-06T07:07:36.820Z,8.50
2023-03-06T07:10:07.573Z,8.83
2023-03-06T07:12:36.912Z,9.17
2023-03-06T07:15:06.128Z,8.43
2023-03-06T07:17:36.761Z,8.27
2023-03-06T07:20:07.218Z,10.00
2023-03-06T07:22:50.230Z,8.47
2023-03-06T07:25:20.758Z,9.27
2023-03-06T07:27:53.768Z,7.40
2023-03-06T07:30:23.428Z,7.93
2023-03-06T07:32:54.255Z,8.20
2023-03-06T07:35:25.454Z,8.30
2023-03-06T07:37:59.462Z,8.30
2023-03-06T07:40:29.399Z,7.97
2023-03-06T07:43:12.954Z,7.67
2023-03-06T07:45:57.662Z,8.13
2023-03-06T07:48:26.091Z,8.40
2023-03-06T07:50:59.919Z,7.53
2023-03-06T07:53:30.493Z,9.00
2023-03-06T07:55:59.338Z,8.33
2023-03-06T07:58:29.490Z,7.43
2023-03-06T08:00:58.794Z,7.90
2023-03-06T08:03:27.328Z,7.67
2023-03-06T08:05:56.239Z,7.10
2023-03-06T08:08:24.579Z,7.77
2023-03-06T08:10:54.408Z,8.70
2023-03-06T08:13:22.953Z,8.20
2023-03-06T08:15:52.034Z,7.37
2023-03-06T08:18:22.200Z,8.50
2023-03-06T08:20:50.613Z,8.03
2023-03-06T08:23:19.085Z,8.67
2023-03-06T08:25:47.969Z,8.10
2023-03-06T08:28:18.629Z,8.00
2023-03-06T08:30:47.105Z,7.93
2023-03-06T08:33:19.565Z,8.30
2023-03-06T08:35:49.427Z,8.77
2023-03-06T08:38:18.307Z,8.33
2023-03-06T08:40:48.327Z,7.77
2023-03-06T08:43:18.340Z,7.20
2023-03-06T08:45:47.013Z,8.50
2023-03-06T08:48:15.373Z,7.67
2023-03-06T08:50:56.141Z,8.77
2023-03-06T08:53:40.349Z,8.33
2023-03-06T08:56:17.095Z,8.50
2023-03-06T08:58:48.998Z,6.93
2023-03-06T09:01:21.582Z,7.80
2023-03-06T09:03:51.409Z,7.80
2023-03-06T09:06:19.896Z,7.67
2023-03-06T09:08:50.859Z,9.30
2023-03-06T09:11:19.557Z,8.40
2023-03-06T09:13:50.920Z,9.20
2023-03-06T09:16:21.451Z,8.50
2023-03-06T09:18:53.141Z,9.47
2023-03-06T09:21:22.582Z,9.27
2023-03-06T09:23:52.723Z,8.70
2023-03-06T09:26:27.957Z,8.50
2023-03-06T09:29:03.275Z,9.23
2023-03-06T09:31:32.112Z,7.07
2023-03-06T09:34:02.111Z,7.40
2023-03-06T09:36:30.643Z,8.50
2023-03-06T09:38:59.110Z,8.03
2023-03-06T09:41:31.597Z,8.30
2023-03-06T09:44:08.825Z,7.70
2023-03-06T09:46:58.001Z,8.90
2023-03-06T09:50:00.881Z,7.87
2023-03-06T09:52:35.617Z,9.33
2023-03-06T09:55:13.443Z,9.50
2023-03-06T09:57:51.252Z,9.00
2023-03-06T10:00:30.300Z,9.37
2023-03-06T10:03:18.307Z,8.57
2023-03-06T10:05:51.626Z,9.10
2023-03-06T10:08:26.363Z,9.73
2023-03-06T10:11:02.497Z,8.03
2023-03-06T10:13:38.118Z,9.40
2023-03-06T10:16:23.470Z,8.73
2023-03-06T10:18:56.330Z,10.00
2023-03-06T10:21:40.412Z,9.70
2023-03-06T10:24:22.009Z,9.07
2023-03-06T10:26:56.582Z,9.63
2023-03-06T10:30:01.687Z,9.13
2023-03-06T10:32:49.022Z,9.03
2023-03-06T10:35:21.859Z,8.70
2023-03-06T10:37:51.271Z,8.43
2023-03-06T10:40:22.838Z,8.93
2023-03-06T10:43:01.716Z,8.83
2023-03-06T10:45:50.279Z,10.27
2023-03-06T10:48:25.211Z,9.77
2023-03-06T10:50:55.232Z,9.67
2023-03-06T10:53:29.048Z,8.53
2023-03-06T10:55:59.531Z,9.83
2023-03-06T10:58:32.946Z,7.43
2023-03-06T11:01:07.262Z,9.27
2023-03-06T11:03:38.528Z,8.87
2023-03-06T11:06:13.084Z,9.63
2023-03-06T11:08:45.341Z,8.80
2023-03-06T11:11:28.294Z,7.70
2023-03-06T11:14:17.784Z,8.53
2023-03-06T11:16:53.181Z,9.40
2023-03-06T11:19:27.576Z,7.50
2023-03-06T11:22:04.458Z,8.20
2023-03-06T11:24:40.930Z,8.33
2023-03-06T11:27:23.969Z,8.30
2023-03-06T11:29:55.113Z,8.80
2023-03-06T11:32:31.293Z,8.20
2023-03-06T11:35:05.496Z,8.93
2023-03-06T11:37:44.873Z,7.43
2023-03-06T11:40:21.479Z,8.80
2023-03-06T11:42:56.133Z,7.73
2023-03-06T11:45:28.980Z,8.70
2023-03-06T11:48:11.950Z,6.43
2023-03-06T11:50:45.501Z,8.57
2023-03-06T11:53:16.260Z,8.60
2023-03-06T11:55:56.155Z,8.57
2023-03-06T11:59:00.094Z,8.33
2023-03-06T12:01:34.373Z,8.70
2023-03-06T12:04:31.030Z,8.50
2023-03-06T12:07:12.914Z,8.17
2023-03-06T12:09:47.870Z,8.07
2023-03-06T12:12:26.978Z,8.57
2023-03-06T12:15:11.109Z,7.87
2023-03-06T12:17:57.601Z,6.90
2023-03-06T12:20:38.950Z,8.17
2023-03-06T12:23:23.420Z,8.20
2023-03-06T12:25:56.165Z,7.90
2023-03-06T12:28:51.407Z,7.20
2023-03-06T12:31:42.530Z,7.37
2023-03-06T12:34:21.729Z,8.83
2023-03-06T12:37:01.737Z,6.63
2023-03-06T12:39:48.136Z,7.27
2023-03-06T12:42:28.534Z,7.53
2023-03-06T12:45:28.958Z,7.70
2023-03-06T12:47:58.575Z,10.43
2023-03-06T12:50:28.547Z,8.60
2023-03-06T12:53:00.308Z,7.03
2023-03-06T12:55:37.995Z,7.10
2023-03-06T12:58:46.503Z,6.80
2023-03-06T13:01:32.077Z,6.30
2023-03-06T13:04:20.660Z,7.00
2023-03-06T13:07:04.153Z,7.67
2023-03-06T13:09:40.911Z,6.93
2023-03-06T13:12:42.871Z,6.73
2023-03-06T13:15:40.229Z,7.87
2023-03-06T13:18:47.434Z,6.90
2023-03-06T13:21:47.945Z,6.40
2023-03-06T13:24:22.504Z,7.60
2023-03-06T13:26:59.935Z,7.47
2023-03-06T13:29:54.646Z,7.77
2023-03-06T13:32:33.534Z,7.10
2023-03-06T13:35:02.884Z,7.43
2023-03-06T13:37:51.097Z,7.77
2023-03-06T13:40:32.636Z,8.20
2023-03-06T13:43:25.869Z,7.50
2023-03-06T13:45:55.112Z,8.30
2023-03-06T13:48:43.654Z,7.50
2023-03-06T13:51:24.481Z,7.23
2023-03-06T13:54:19.730Z,8.90
2023-03-06T13:57:19.816Z,8.73
2023-03-06T14:00:29.282Z,8.67
2023-03-06T14:03:39.839Z,9.60
2023-03-06T14:06:49.677Z,8.10
2023-03-06T14:09:29.640Z,8.00
2023-03-06T14:12:01.107Z,8.20
2023-03-06T14:14:39.708Z,7.90
2023-03-06T14:17:17.873Z,7.70
2023-03-06T14:19:46.687Z,8.70
2023-03-06T14:22:24.941Z,7.27
2023-03-06T14:25:01.387Z,8.50
2023-03-06T14:27:41.021Z,8.23
2023-03-06T14:30:13.527Z,8.17
2023-03-06T14:32:42.292Z,8.50
2023-03-06T14:35:26.674Z,7.40
2023-03-06T14:37:59.837Z,8.23
2023-03-06T14:40:32.306Z,7.87
2023-03-06T14:43:28.092Z,7.40
2023-03-06T14:45:59.040Z,7.60
2023-03-06T14:48:38.717Z,7.17
2023-03-06T14:51:08.721Z,8.07
2023-03-06T14:53:38.401Z,7.50
2023-03-06T14:56:08.149Z,8.70
2023-03-06T14:58:40.525Z,7.23
2023-03-06T15:01:11.326Z,8.10
2023-03-06T15:03:45.920Z,8.47
2023-03-06T15:06:19.002Z,8.80
2023-03-06T15:08:53.424Z,8.40
2023-03-06T15:11:21.708Z,8.00
2023-03-06T15:14:02.874Z,8.67
2023-03-06T15:16:32.446Z,7.30
2023-03-06T15:19:02.532Z,7.40
2023-03-06T15:21:35.761Z,7.80
2023-03-06T15:24:32.712Z,8.27
2023-03-06T15:27:04.166Z,7.33
2023-03-06T15:29:33.430Z,7.13
2023-03-06T15:32:15.728Z,7.13
2023-03-06T15:34:44.145Z,7.33
2023-03-06T15:37:28.159Z,8.43
2023-03-06T15:40:10.506Z,7.87
2023-03-06T15:42:38.944Z,6.20
2023-03-06T15:45:16.872Z,8.00
2023-03-06T15:47:45.942Z,3.77
2023-03-06T15:50:19.280Z,5.10
2023-03-06T15:52:49.796Z,6.17
2023-03-06T15:55:23.103Z,7.50
2023-03-06T15:57:54.925Z,7.50
2023-03-06T16:00:28.287Z,8.40
2023-03-06T16:02:57.905Z,8.57
2023-03-06T16:05:27.101Z,6.90
2023-03-06T16:07:56.275Z,5.67
2023-03-06T16:10:29.876Z,7.80
2023-03-06T16:13:03.676Z,7.70
2023-03-06T16:15:34.913Z,7.63
2023-03-06T16:18:03.550Z,7.17
2023-03-06T16:20:32.893Z,6.90
2023-03-06T16:23:01.384Z,6.83
2023-03-06T16:25:31.286Z,7.80
2023-03-06T16:28:01.107Z,8.70
2023-03-06T16:30:32.156Z,8.10
2023-03-06T16:33:01.521Z,8.20
2023-03-06T16:35:30.235Z,7.00
2023-03-06T16:37:59.048Z,5.37
2023-03-06T16:40:29.520Z,8.43
2023-03-06T16:42:59.990Z,8.10
2023-03-06T16:45:28.356Z,8.30
2023-03-06T16:47:59.349Z,6.63
2023-03-06T16:50:30.514Z,6.67
2023-03-06T16:52:59.982Z,7.53
2023-03-06T16:55:31.137Z,6.10
2023-03-06T16:58:01.695Z,7.63
2023-03-06T17:00:32.013Z,8.30
2023-03-06T17:03:01.565Z,6.40
2023-03-06T17:05:33.899Z,7.13
2023-03-06T17:08:02.389Z,9.00
2023-03-06T17:10:31.194Z,7.40
2023-03-06T17:13:01.217Z,8.60
2023-03-06T17:15:30.258Z,5.43
2023-03-06T17:17:59.140Z,6.17
2023-03-06T17:20:27.931Z,7.87
2023-03-06T17:22:56.752Z,8.10
2023-03-06T17:25:26.367Z,6.70
2023-03-06T17:27:54.509Z,4.73
2023-03-06T17:30:24.649Z,8.30
2023-03-06T17:32:53.890Z,7.83
2023-03-06T17:35:22.413Z,9.00
2023-03-06T17:37:51.028Z,9.10
2023-03-06T17:40:20.941Z,9.00
2023-03-06T17:42:50.861Z,7.33
2023-03-06T17:45:19.740Z,9.33
2023-03-06T17:47:49.488Z,9.20
2023-03-06T17:50:18.072Z,7.57
2023-03-06T17:52:46.700Z,8.77
2023-03-06T17:55:15.130Z,7.80
2023-03-06T17:57:43.740Z,5.83
2023-03-06T18:00:13.050Z,7.83
2023-03-06T18:02:41.665Z,8.63
2023-03-06T18:05:14.874Z,5.23
2023-03-06T18:07:45.180Z,8.97
2023-03-06T18:10:15.119Z,8.67
2023-03-06T18:12:44.503Z,9.00
2023-03-06T18:15:14.019Z,9.10
2023-03-06T18:17:42.229Z,4.97
2023-03-06T18:20:14.057Z,9.33
2023-03-06T18:22:43.186Z,6.70
2023-03-06T18:25:11.621Z,6.93
2023-03-06T18:27:40.063Z,5.87
2023-03-06T18:30:09.395Z,10.40
2023-03-06T18:32:38.399Z,9.60
2023-03-06T18:35:09.762Z,8.27
2023-03-06T18:37:42.358Z,6.53
2023-03-06T18:40:13.830Z,8.23
2023-03-06T18:42:45.410Z,8.50
2023-03-06T18:45:14.711Z,9.60
2023-03-06T18:47:43.860Z,8.70
2023-03-06T18:50:17.406Z,10.27
2023-03-06T18:52:47.761Z,9.03
2023-03-06T18:55:16.311Z,10.60
2023-03-06T18:57:45.226Z,10.37
2023-03-06T19:00:14.589Z,9.40
2023-03-06T19:02:43.158Z,9.47
2023-03-06T19:05:12.294Z,8.93
2023-03-06T19:07:41.591Z,8.07
2023-03-06T19:10:13.410Z,5.13
2023-03-06T19:12:42.019Z,8.07
2023-03-06T19:15:12.392Z,7.90
2023-03-06T19:17:41.316Z,8.63
2023-03-06T19:20:11.214Z,8.23
2023-03-06T19:22:39.645Z,9.30
2023-03-06T19:25:09.592Z,8.37
2023-03-06T19:27:39.504Z,8.17
2023-03-06T19:30:09.957Z,7.20
2023-03-06T19:32:38.762Z,6.70
2023-03-06T19:35:10.956Z,9.27
2023-03-06T19:37:39.961Z,7.47
2023-03-06T19:40:11.947Z,9.60
2023-03-06T19:42:42.465Z,8.10
2023-03-06T19:45:12.277Z,9.23
2023-03-06T19:47:42.131Z,10.73
2023-03-06T19:50:12.547Z,9.47
2023-03-06T19:52:41.306Z,11.40
2023-03-06T19:55:10.811Z,10.80
2023-03-06T19:57:39.552Z,10.60
2023-03-06T20:00:13.012Z,11.10
2023-03-06T20:02:41.544Z,9.77
2023-03-06T20:05:11.261Z,10.73
2023-03-06T20:07:39.906Z,9.60
2023-03-06T20:10:09.269Z,11.10
2023-03-06T20:12:37.979Z,10.60
2023-03-06T20:15:11.410Z,10.70
2023-03-06T20:17:40.910Z,9.67
2023-03-06T20:20:10.678Z,11.07
2023-03-06T20:22:39.252Z,10.53
2023-03-06T20:25:08.254Z,12.50
2023-03-06T20:27:36.924Z,9.57
2023-03-06T20:30:08.084Z,11.30
2023-03-06T20:32:38.556Z,10.13
2023-03-06T20:35:08.012Z,9.13
2023-03-06T20:37:36.618Z,11.73
2023-03-06T20:40:06.338Z,11.17
2023-03-06T20:42:35.003Z,9.87
2023-03-06T20:45:03.912Z,10.23
2023-03-06T20:47:37.317Z,5.80
2023-03-06T20:50:09.116Z,11.63
2023-03-06T20:52:37.684Z,10.13
2023-03-06T20:55:07.215Z,10.30
2023-03-06T20:57:36.658Z,6.63
2023-03-06T21:00:09.210Z,11.40
2023-03-06T21:02:37.629Z,11.60
2023-03-06T21:05:08.700Z,11.17
2023-03-06T21:07:38.933Z,13.00
2023-03-06T21:10:09.605Z,11.50
2023-03-06T21:12:43.282Z,5.67
2023-03-06T21:15:12.996Z,13.27
2023-03-06T21:17:42.800Z,12.07
2023-03-06T21:20:14.348Z,10.30
2023-03-06T21:22:43.661Z,11.13
2023-03-06T21:25:13.801Z,11.83
2023-03-06T21:27:42.616Z,11.60
2023-03-06T21:30:12.981Z,9.43
2023-03-06T21:32:41.693Z,8.60
2023-03-06T21:35:10.574Z,11.20
2023-03-06T21:37:40.324Z,12.33
2023-03-06T21:40:10.895Z,11.57
2023-03-06T21:42:40.093Z,12.90
2023-03-06T21:45:09.600Z,11.90
2023-03-06T21:47:40.947Z,8.77
2023-03-06T21:50:12.203Z,12.47
2023-03-06T21:52:45.795Z,12.77
2023-03-06T21:55:14.341Z,11.30
2023-03-06T21:57:43.347Z,14.70
2023-03-06T22:00:13.530Z,11.10
2023-03-06T22:02:42.122Z,13.00
2023-03-06T22:05:11.242Z,12.67
2023-03-06T22:07:42.658Z,13.50
2023-03-06T22:10:14.498Z,13.73
2023-03-06T22:12:43.855Z,12.37
2023-03-06T22:15:13.881Z,10.57
2023-03-06T22:17:43.075Z,10.73
2023-03-06T22:20:14.246Z,15.50
2023-03-06T22:22:45.465Z,14.23
2023-03-06T22:25:15.036Z,15.37
2023-03-06T22:27:43.488Z,9.83
2023-03-06T22:30:13.260Z,14.37
2023-03-06T22:32:41.562Z,13.43
2023-03-06T22:35:11.116Z,15.70
2023-03-06T22:37:39.573Z,12.70
2023-03-06T22:40:13.059Z,12.67
2023-03-06T22:42:41.959Z,11.70
2023-03-06T22:45:11.653Z,16.00
2023-03-06T22:47:40.750Z,15.20
2023-03-06T22:50:13.051Z,15.40
2023-03-06T22:52:43.294Z,14.53
2023-03-06T22:55:13.967Z,15.90
2023-03-06T22:57:45.828Z,15.87
2023-03-06T23:00:15.056Z,15.13
2023-03-06T23:02:45.168Z,16.40
2023-03-06T23:05:14.974Z,16.23
2023-03-06T23:07:45.902Z,15.60
2023-03-06T23:10:17.288Z,13.37
2023-03-06T23:13:05.196Z,15.70
2023-03-06T23:15:51.903Z,15.30
2023-03-06T23:18:41.020Z,13.70
2023-03-06T23:21:28.078Z,13.73
2023-03-06T23:24:15.815Z,14.50
2023-03-06T23:26:45.948Z,9.43
2023-03-06T23:29:16.051Z,15.70
2023-03-06T23:31:44.713Z,13.60
2023-03-06T23:34:14.151Z,14.73
2023-03-06T23:36:42.846Z,13.73
2023-03-06T23:39:13.505Z,15.40
2023-03-06T23:41:43.808Z,11.67
2023-03-06T23:44:13.955Z,13.53
2023-03-06T23:46:42.760Z,9.40
2023-03-06T23:49:11.504Z,9.20
2023-03-06T23:51:40.484Z,12.13
2023-03-06T23:54:09.111Z,11.40
2023-03-06T23:56:37.538Z,11.50
2023-03-06T23:59:06.046Z,9.30
